createdAt,value
2022-12-19T00:01:51.635Z,150.57
2022-12-19T00:03:57.315Z,156.88
2022-12-19T00:06:02.898Z,150.60
2022-12-19T00:08:16.938Z,161.43
2022-12-19T00:10:20.607Z,147.85
2022-12-19T00:12:26.991Z,150.88
2022-12-19T00:14:30.292Z,157.40
2022-12-19T00:16:33.706Z,154.10
2022-12-19T00:18:37.373Z,161.60
2022-12-19T00:20:40.676Z,148.00
2022-12-19T00:22:43.940Z,149.52
2022-12-19T00:24:47.234Z,152.25
2022-12-19T00:26:51.260Z,150.90
2022-12-19T00:28:58.198Z,157.18
2022-12-19T00:31:01.681Z,148.65
2022-12-19T00:33:04.969Z,154.85
2022-12-19T00:35:08.707Z,160.75
2022-12-19T00:37:12.223Z,158.20
2022-12-19T00:39:15.601Z,155.40
2022-12-19T00:41:21.386Z,157.73
2022-12-19T00:43:25.075Z,148.75
2022-12-19T00:45:29.865Z,161.88
2022-12-19T00:47:34.281Z,150.80
2022-12-19T00:49:38.393Z,159.50
2022-12-19T00:51:42.324Z,161.20
2022-12-19T00:53:48.297Z,163.77
2022-12-19T00:55:51.885Z,156.23
2022-12-19T00:57:55.499Z,159.80
2022-12-19T01:00:03.068Z,162.27
2022-12-19T01:02:07.875Z,156.80
2022-12-19T01:04:31.843Z,150.07
2022-12-19T01:06:38.225Z,152.05
2022-12-19T01:08:42.560Z,150.02
2022-12-19T01:10:46.906Z,162.25
2022-12-19T01:12:49.640Z,153.57
2022-12-19T01:14:54.710Z,152.68
2022-12-19T01:17:00.802Z,166.88
2022-12-19T01:19:05.669Z,167.90
2022-12-19T01:21:11.910Z,154.30
2022-12-19T01:23:16.798Z,157.73
2022-12-19T01:25:20.489Z,164.27
2022-12-19T01:27:23.915Z,154.82
2022-12-19T01:29:27.505Z,158.73
2022-12-19T01:31:31.829Z,145.50
2022-12-19T01:33:35.333Z,147.90
2022-12-19T01:35:40.354Z,168.00
2022-12-19T01:37:43.845Z,151.43
2022-12-19T01:39:47.417Z,154.73
2022-12-19T01:41:50.851Z,155.20
2022-12-19T01:44:00.494Z,161.45
2022-12-19T01:46:07.149Z,150.00
2022-12-19T01:48:18.416Z,163.38
2022-12-19T01:50:29.655Z,150.75
2022-12-19T01:52:34.524Z,157.30
2022-12-19T01:54:41.825Z,157.82
2022-12-19T01:56:49.825Z,180.32
2022-12-19T01:59:05.775Z,171.45
2022-12-19T02:01:13.186Z,158.30
2022-12-19T02:03:24.626Z,166.75
2022-12-19T02:05:28.279Z,164.85
2022-12-19T02:07:32.821Z,154.40
2022-12-19T02:09:38.257Z,153.88
2022-12-19T02:11:41.759Z,145.55
2022-12-19T02:13:46.808Z,164.10
2022-12-19T02:16:00.292Z,149.35
2022-12-19T02:18:13.285Z,158.88
2022-12-19T02:20:41.460Z,155.18
2022-12-19T02:23:01.746Z,159.50
2022-12-19T02:25:41.998Z,154.10
2022-12-19T02:28:17.926Z,153.45
2022-12-19T02:30:42.343Z,150.70
2022-12-19T02:32:50.836Z,154.35
2022-12-19T02:35:03.734Z,153.52
2022-12-19T02:37:11.819Z,159.60
2022-12-19T02:39:20.274Z,154.82
2022-12-19T02:41:30.636Z,166.00
2022-12-19T02:43:41.752Z,154.52
2022-12-19T02:45:49.160Z,154.45
2022-12-19T02:47:53.046Z,168.20
2022-12-19T02:49:58.265Z,166.65
2022-12-19T02:52:10.196Z,157.35
2022-12-19T02:54:13.593Z,156.73
2022-12-19T02:56:30.734Z,149.38
2022-12-19T02:58:46.661Z,159.32
2022-12-19T03:01:03.430Z,153.60
2022-12-19T03:03:13.162Z,155.35
2022-12-19T03:05:26.814Z,159.13
2022-12-19T03:07:40.938Z,148.50
2022-12-19T03:09:52.768Z,154.48
2022-12-19T03:12:04.284Z,153.63
2022-12-19T03:14:11.964Z,150.38
2022-12-19T03:16:16.845Z,166.15
2022-12-19T03:18:21.096Z,157.57
2022-12-19T03:20:33.267Z,171.07
2022-12-19T03:22:36.876Z,157.55
2022-12-19T03:24:40.800Z,150.55
2022-12-19T03:26:51.567Z,153.10
2022-12-19T03:28:59.577Z,153.30
2022-12-19T03:31:05.295Z,162.20
2022-12-19T03:33:12.960Z,146.48
2022-12-19T03:35:21.403Z,150.40
2022-12-19T03:37:29.438Z,147.18
2022-12-19T03:39:33.852Z,156.60
2022-12-19T03:41:56.863Z,148.05
2022-12-19T03:44:00.508Z,153.45
2022-12-19T03:46:10.030Z,154.45
2022-12-19T03:48:20.433Z,168.52
2022-12-19T03:50:29.799Z,151.57
2022-12-19T03:52:40.676Z,167.00
2022-12-19T03:54:53.751Z,149.30
2022-12-19T03:57:03.994Z,171.82
2022-12-19T03:59:10.599Z,152.65
2022-12-19T04:01:14.353Z,160.52
2022-12-19T04:03:20.510Z,162.68
2022-12-19T04:05:26.128Z,154.32
2022-12-19T04:07:30.108Z,161.15
2022-12-19T04:09:34.981Z,159.95
2022-12-19T04:11:43.025Z,160.52
2022-12-19T04:13:56.936Z,164.63
2022-12-19T04:16:07.830Z,161.60
2022-12-19T04:18:14.660Z,159.48
2022-12-19T04:20:22.116Z,152.65
2022-12-19T04:22:30.489Z,149.10
2022-12-19T04:24:37.258Z,151.60
2022-12-19T04:26:45.618Z,149.70
2022-12-19T04:28:52.820Z,160.23
2022-12-19T04:30:56.347Z,163.98
2022-12-19T04:33:00.151Z,169.30
2022-12-19T04:35:04.204Z,151.25
2022-12-19T04:37:09.771Z,152.93
2022-12-19T04:39:13.222Z,153.68
2022-12-19T04:41:16.606Z,162.00
2022-12-19T04:43:19.908Z,167.05
2022-12-19T04:45:23.385Z,159.38
2022-12-19T04:47:27.474Z,161.63
2022-12-19T04:49:31.126Z,156.48
2022-12-19T04:51:34.591Z,167.32
2022-12-19T04:53:39.427Z,154.73
2022-12-19T04:55:44.143Z,151.82
2022-12-19T04:57:49.364Z,160.85
2022-12-19T04:59:52.670Z,172.82
2022-12-19T05:01:56.357Z,162.55
2022-12-19T05:04:04.371Z,181.43
2022-12-19T05:06:11.330Z,157.88
2022-12-19T05:08:14.688Z,162.63
2022-12-19T05:10:19.828Z,148.52
2022-12-19T05:12:23.174Z,152.50
2022-12-19T05:14:26.762Z,148.85
2022-12-19T05:16:31.034Z,160.93
2022-12-19T05:18:35.611Z,162.63
2022-12-19T05:20:39.305Z,151.82
2022-12-19T05:22:42.676Z,152.70
2022-12-19T05:24:46.029Z,171.80
2022-12-19T05:26:51.188Z,158.93
2022-12-19T05:28:54.929Z,171.82
2022-12-19T05:31:04.193Z,163.10
2022-12-19T05:33:09.540Z,160.35
2022-12-19T05:35:12.950Z,154.38
2022-12-19T05:37:16.440Z,172.18
2022-12-19T05:39:19.813Z,161.93
2022-12-19T05:41:23.530Z,156.15
2022-12-19T05:43:28.904Z,162.48
2022-12-19T05:45:32.250Z,171.55
2022-12-19T05:47:37.975Z,157.38
2022-12-19T05:49:41.605Z,167.98
2022-12-19T05:51:47.979Z,156.90
2022-12-19T05:53:52.001Z,174.30
2022-12-19T05:56:04.856Z,169.98
2022-12-19T05:58:08.317Z,166.65
2022-12-19T06:00:14.567Z,166.73
2022-12-19T06:02:18.127Z,172.68
2022-12-19T06:04:21.607Z,159.23
2022-12-19T06:06:26.695Z,173.68
2022-12-19T06:08:30.130Z,161.20
2022-12-19T06:10:33.897Z,177.93
2022-12-19T06:12:37.361Z,175.00
2022-12-19T06:14:41.167Z,169.50
2022-12-19T06:16:45.916Z,177.73
2022-12-19T06:18:49.692Z,165.68
2022-12-19T06:20:57.982Z,160.55
2022-12-19T06:23:02.146Z,162.68
2022-12-19T06:25:06.297Z,182.60
2022-12-19T06:27:09.949Z,167.05
2022-12-19T06:29:13.332Z,157.30
2022-12-19T06:31:17.137Z,157.43
2022-12-19T06:33:24.702Z,176.57
2022-12-19T06:35:28.199Z,172.98
2022-12-19T06:37:31.963Z,179.18
2022-12-19T06:39:35.258Z,174.77
2022-12-19T06:41:56.387Z,181.88
2022-12-19T06:44:00.166Z,176.95
2022-12-19T06:46:03.543Z,182.57
2022-12-19T06:48:07.421Z,186.10
2022-12-19T06:50:12.133Z,180.07
2022-12-19T06:52:15.658Z,178.75
2022-12-19T06:54:19.694Z,180.27
2022-12-19T06:56:23.179Z,172.27
2022-12-19T06:58:26.977Z,166.15
2022-12-19T07:00:30.847Z,177.20
2022-12-19T07:02:34.662Z,181.45
2022-12-19T07:04:42.797Z,169.80
2022-12-19T07:06:49.413Z,174.55
2022-12-19T07:08:54.602Z,182.85
2022-12-19T07:10:59.081Z,162.48
2022-12-19T07:13:02.642Z,165.07
2022-12-19T07:15:06.944Z,173.75
2022-12-19T07:17:10.693Z,183.63
2022-12-19T07:19:14.806Z,163.20
2022-12-19T07:21:18.321Z,175.38
2022-12-19T07:23:24.350Z,179.13
2022-12-19T07:25:27.716Z,166.80
2022-12-19T07:27:35.662Z,163.00
2022-12-19T07:29:39.656Z,165.98
2022-12-19T07:31:43.435Z,165.20
2022-12-19T07:33:46.849Z,168.10
2022-12-19T07:35:50.264Z,182.13
2022-12-19T07:37:54.007Z,173.50
2022-12-19T07:39:58.834Z,168.23
2022-12-19T07:42:02.205Z,165.98
2022-12-19T07:44:16.457Z,174.02
2022-12-19T07:46:20.121Z,163.82
2022-12-19T07:48:24.391Z,172.52
2022-12-19T07:50:27.799Z,169.35
2022-12-19T07:52:31.744Z,158.20
2022-12-19T07:54:35.312Z,155.20
2022-12-19T07:56:40.045Z,169.10
2022-12-19T07:58:44.580Z,176.45
2022-12-19T08:00:55.194Z,176.32
2022-12-19T08:02:59.789Z,167.95
2022-12-19T08:05:04.416Z,171.43
2022-12-19T08:07:07.958Z,187.00
2022-12-19T08:09:11.858Z,174.15
2022-12-19T08:11:17.820Z,177.68
2022-12-19T08:13:23.483Z,176.27
2022-12-19T08:15:27.331Z,174.85
2022-12-19T08:17:31.191Z,165.73
2022-12-19T08:19:34.491Z,164.57
2022-12-19T08:21:38.003Z,181.48
2022-12-19T08:23:41.677Z,184.35
2022-12-19T08:25:45.053Z,172.60
2022-12-19T08:27:48.451Z,178.52
2022-12-19T08:29:54.221Z,176.88
2022-12-19T08:31:57.906Z,171.70
2022-12-19T08:34:01.263Z,176.55
2022-12-19T08:36:06.004Z,173.82
2022-12-19T08:38:10.038Z,186.27
2022-12-19T08:40:13.736Z,191.98
2022-12-19T08:42:17.476Z,177.20
2022-12-19T08:44:21.030Z,180.35
2022-12-19T08:46:25.940Z,198.95
2022-12-19T08:48:29.598Z,187.20
2022-12-19T08:50:32.898Z,182.30
2022-12-19T08:52:36.508Z,182.85
2022-12-19T08:54:39.984Z,174.63
2022-12-19T08:56:46.728Z,177.00
2022-12-19T08:58:52.925Z,159.00
2022-12-19T09:01:05.279Z,165.43
2022-12-19T09:03:10.424Z,172.13
2022-12-19T09:05:59.780Z,177.07
2022-12-19T09:07:40.759Z,171.70
2022-12-19T09:09:44.137Z,173.38
2022-12-19T09:11:48.463Z,170.73
2022-12-19T09:13:51.887Z,170.48
2022-12-19T09:16:05.921Z,170.65
2022-12-19T09:18:10.569Z,183.98
2022-12-19T09:20:16.889Z,173.90
2022-12-19T09:22:27.770Z,177.25
2022-12-19T09:24:32.935Z,185.18
2022-12-19T09:26:38.517Z,182.05
2022-12-19T09:28:42.676Z,177.90
2022-12-19T09:30:46.322Z,195.60
2022-12-19T09:32:50.193Z,177.52
2022-12-19T09:34:54.998Z,174.02
2022-12-19T09:36:58.732Z,177.57
2022-12-19T09:39:02.148Z,171.55
2022-12-19T09:41:29.078Z,169.02
2022-12-19T09:43:49.521Z,179.25
2022-12-19T09:46:02.844Z,172.40
2022-12-19T09:48:23.570Z,177.65
2022-12-19T09:50:40.314Z,180.95
2022-12-19T09:52:51.406Z,184.00
2022-12-19T09:55:02.120Z,181.48
2022-12-19T09:57:12.827Z,184.90
2022-12-19T09:59:31.817Z,165.95
2022-12-19T10:01:56.684Z,176.00
2022-12-19T10:04:04.373Z,183.98
2022-12-19T10:07:16.109Z,175.43
2022-12-19T10:09:14.432Z,184.75
2022-12-19T10:12:35.668Z,175.02
2022-12-19T10:13:50.336Z,169.93
2022-12-19T10:16:04.752Z,175.95
2022-12-19T10:18:27.547Z,184.05
2022-12-19T10:20:38.459Z,176.32
2022-12-19T10:22:52.506Z,179.98
2022-12-19T10:25:21.050Z,171.38
2022-12-19T10:27:32.367Z,181.52
2022-12-19T10:29:49.865Z,173.80
2022-12-19T10:31:59.810Z,170.20
2022-12-19T10:34:16.364Z,177.95
2022-12-19T10:36:19.707Z,174.52
2022-12-19T10:38:30.102Z,194.13
2022-12-19T10:40:40.679Z,184.93
2022-12-19T10:42:52.382Z,190.63
2022-12-19T10:44:58.353Z,189.63
2022-12-19T10:47:01.737Z,173.25
2022-12-19T10:49:14.457Z,177.43
2022-12-19T10:51:24.491Z,187.88
2022-12-19T10:53:32.084Z,176.32
2022-12-19T10:55:43.909Z,186.85
2022-12-19T10:57:47.334Z,182.48
2022-12-19T10:59:58.803Z,183.57
2022-12-19T11:02:04.897Z,190.85
2022-12-19T11:04:28.554Z,184.75
2022-12-19T11:06:51.085Z,173.18
2022-12-19T11:09:18.965Z,177.20
2022-12-19T11:14:29.803Z,173.55
2022-12-19T11:17:49.588Z,180.00
2022-12-19T11:20:02.735Z,180.93
2022-12-19T11:27:48.711Z,173.30
2022-12-19T11:29:26.190Z,175.80
2022-12-19T11:29:35.298Z,176.02
2022-12-19T11:30:37.983Z,188.45
2022-12-19T11:30:45.728Z,181.13
2022-12-19T11:32:20.617Z,183.40
2022-12-19T11:33:25.391Z,180.40
2022-12-19T11:35:36.934Z,182.75
2022-12-19T11:37:47.062Z,177.73
2022-12-19T11:39:56.542Z,183.80
2022-12-19T11:42:08.175Z,192.48
2022-12-19T11:44:22.174Z,183.20
2022-12-19T11:46:38.025Z,190.32
2022-12-19T11:48:47.906Z,181.48
2022-12-19T11:51:00.973Z,199.50
2022-12-19T11:53:18.888Z,190.60
2022-12-19T11:55:27.214Z,180.00
2022-12-19T11:57:32.714Z,191.50
2022-12-19T11:59:37.752Z,177.55
2022-12-19T12:01:49.558Z,187.27
2022-12-19T12:04:09.791Z,185.93
2022-12-19T12:06:17.416Z,177.68
2022-12-19T12:11:13.838Z,174.07
2022-12-19T12:19:11.267Z,175.82
2022-12-19T12:23:13.242Z,184.93
2022-12-19T12:31:15.118Z,174.20
2022-12-19T12:31:15.729Z,171.10
2022-12-19T12:31:31.630Z,168.98
2022-12-19T12:31:31.853Z,176.18
2022-12-19T12:31:50.629Z,160.98
2022-12-19T12:31:51.536Z,174.77
2022-12-19T12:35:38.054Z,185.05
2022-12-19T12:35:56.638Z,178.80
2022-12-19T12:40:06.885Z,173.82
2022-12-19T12:42:18.825Z,174.55
2022-12-19T12:44:32.845Z,185.07
2022-12-19T12:46:41.278Z,172.30
2022-12-19T12:48:51.104Z,193.98
2022-12-19T12:50:55.565Z,182.02
2022-12-19T12:53:03.406Z,189.98
2022-12-19T12:55:15.377Z,179.13
2022-12-19T12:57:21.573Z,203.95
2022-12-19T12:59:30.057Z,186.73
2022-12-19T13:01:38.926Z,194.10
2022-12-19T13:03:43.608Z,188.68
2022-12-19T13:06:04.268Z,191.18
2022-12-19T13:08:32.622Z,191.80
2022-12-19T13:10:36.746Z,182.20
2022-12-19T13:13:02.421Z,180.48
2022-12-19T13:15:34.376Z,189.80
2022-12-19T13:18:02.807Z,180.48
2022-12-19T13:20:40.924Z,180.18
2022-12-19T13:23:02.343Z,183.32
2022-12-19T13:25:51.148Z,174.10
2022-12-19T13:27:57.725Z,189.80
2022-12-19T13:30:20.764Z,188.98
2022-12-19T13:32:24.699Z,178.50
2022-12-19T13:34:37.053Z,179.65
2022-12-19T13:39:55.756Z,178.10
2022-12-19T13:39:58.423Z,187.10
2022-12-19T13:42:21.472Z,170.55
2022-12-19T13:44:25.173Z,180.02
2022-12-19T13:46:39.833Z,184.57
2022-12-19T13:48:47.623Z,188.25
2022-12-19T13:50:52.345Z,185.18
2022-12-19T13:52:55.661Z,179.52
2022-12-19T13:54:59.950Z,183.15
2022-12-19T13:57:09.604Z,197.02
2022-12-19T13:59:14.625Z,190.20
2022-12-19T14:01:22.782Z,175.90
2022-12-19T14:03:38.018Z,187.10
2022-12-19T14:06:16.966Z,187.25
2022-12-19T14:08:07.439Z,183.25
2022-12-19T14:11:34.885Z,181.82
2022-12-19T14:13:50.132Z,176.15
2022-12-19T14:15:32.428Z,177.20
2022-12-19T14:17:35.764Z,194.52
2022-12-19T14:19:41.331Z,184.73
2022-12-19T14:22:06.856Z,193.25
2022-12-19T14:24:15.274Z,188.75
2022-12-19T14:28:20.707Z,182.63
2022-12-19T14:28:55.803Z,177.18
2022-12-19T14:31:01.648Z,193.02
2022-12-19T14:33:45.774Z,189.73
2022-12-19T14:36:07.636Z,180.10
2022-12-19T14:39:22.761Z,197.40
2022-12-19T14:40:28.052Z,191.55
2022-12-19T14:43:57.176Z,180.73
2022-12-19T14:53:51.244Z,185.73
2022-12-19T14:54:04.973Z,171.68
2022-12-19T14:54:09.146Z,184.65
2022-12-19T14:54:42.091Z,176.57
2022-12-19T14:56:17.807Z,172.73
2022-12-19T14:58:55.935Z,189.57
2022-12-19T15:00:51.016Z,178.93
2022-12-19T15:02:54.751Z,182.05
2022-12-19T15:05:03.759Z,179.75
2022-12-19T15:07:12.291Z,179.65
2022-12-19T15:10:58.509Z,179.77
2022-12-19T15:14:47.461Z,181.15
2022-12-19T15:14:56.032Z,187.38
2022-12-19T15:17:04.284Z,195.80
2022-12-19T15:19:13.659Z,203.68
2022-12-19T15:21:16.973Z,196.60
2022-12-19T15:23:22.540Z,183.05
2022-12-19T15:26:02.295Z,179.45
2022-12-19T15:27:49.689Z,180.65
2022-12-19T15:29:53.176Z,176.60
2022-12-19T15:31:56.689Z,179.88
2022-12-19T15:34:33.143Z,179.52
2022-12-19T15:36:25.037Z,185.75
2022-12-19T15:38:28.404Z,185.68
2022-12-19T15:40:31.734Z,189.88
2022-12-19T15:42:35.711Z,199.18
2022-12-19T15:44:42.235Z,194.57
2022-12-19T15:46:49.253Z,207.18
2022-12-19T15:48:53.018Z,188.20
2022-12-19T15:50:56.325Z,203.65
2022-12-19T15:53:01.978Z,191.75
2022-12-19T15:55:06.254Z,187.15
2022-12-19T15:57:19.733Z,205.75
2022-12-19T15:59:34.810Z,212.38
2022-12-19T16:01:40.592Z,195.50
2022-12-19T16:03:44.302Z,189.52
2022-12-19T16:05:48.462Z,181.60
2022-12-19T16:07:52.266Z,189.25
2022-12-19T16:09:57.130Z,189.02
2022-12-19T16:12:00.548Z,186.85
2022-12-19T16:14:03.895Z,193.10
2022-12-19T16:16:14.971Z,180.35
2022-12-19T16:18:19.897Z,195.30
2022-12-19T16:20:25.455Z,190.93
2022-12-19T16:22:30.285Z,190.20
2022-12-19T16:24:33.595Z,190.30
2022-12-19T16:26:40.721Z,192.55
2022-12-19T16:28:44.103Z,186.23
2022-12-19T16:30:47.736Z,200.15
2022-12-19T16:32:51.483Z,175.00
2022-12-19T16:34:55.144Z,182.35
2022-12-19T16:36:58.444Z,181.65
2022-12-19T16:39:01.882Z,194.82
2022-12-19T16:41:05.300Z,182.75
2022-12-19T16:43:16.199Z,196.50
2022-12-19T16:45:21.306Z,191.88
2022-12-19T16:47:24.917Z,203.63
2022-12-19T16:49:28.599Z,202.40
2022-12-19T16:51:32.215Z,202.07
2022-12-19T16:53:35.564Z,204.90
2022-12-19T16:55:39.187Z,228.15
2022-12-19T16:57:43.722Z,186.45
2022-12-19T16:59:49.469Z,215.30
2022-12-19T17:01:53.218Z,203.88
2022-12-19T17:03:56.817Z,197.05
2022-12-19T17:06:01.704Z,205.43
2022-12-19T17:08:12.603Z,205.05
2022-12-19T17:10:21.354Z,205.43
2022-12-19T17:12:29.645Z,189.15
2022-12-19T17:14:33.314Z,189.55
2022-12-19T17:16:38.566Z,205.02
2022-12-19T17:18:43.806Z,194.98
2022-12-19T17:20:47.615Z,215.15
2022-12-19T17:22:50.963Z,208.13
2022-12-19T17:24:54.360Z,200.18
2022-12-19T17:26:57.641Z,206.00
2022-12-19T17:29:00.991Z,216.77
2022-12-19T17:31:11.750Z,216.38
2022-12-19T17:33:17.824Z,192.73
2022-12-19T17:35:28.042Z,214.68
2022-12-19T17:37:31.963Z,202.88
2022-12-19T17:39:35.547Z,205.77
2022-12-19T17:41:38.901Z,222.57
2022-12-19T17:43:42.262Z,210.50
2022-12-19T17:45:46.097Z,199.60
2022-12-19T17:47:50.243Z,230.95
2022-12-19T17:49:54.996Z,200.65
2022-12-19T17:52:00.814Z,195.70
2022-12-19T17:54:04.429Z,208.45
2022-12-19T17:56:13.527Z,196.43
2022-12-19T17:58:17.432Z,201.57
2022-12-19T18:00:29.932Z,226.45
2022-12-19T18:02:36.091Z,213.18
2022-12-19T18:04:39.522Z,200.88
2022-12-19T18:06:44.616Z,216.13
2022-12-19T18:08:48.065Z,200.73
2022-12-19T18:10:51.503Z,222.05
2022-12-19T18:12:55.163Z,210.13
2022-12-19T18:14:58.769Z,215.80
2022-12-19T18:17:03.014Z,202.68
2022-12-19T18:19:06.738Z,206.07
2022-12-19T18:21:14.483Z,211.13
2022-12-19T18:23:22.544Z,213.52
2022-12-19T18:25:28.251Z,197.10
2022-12-19T18:27:31.928Z,199.15
2022-12-19T18:29:35.559Z,219.38
2022-12-19T18:31:43.451Z,218.25
2022-12-19T18:33:52.882Z,207.02
2022-12-19T18:35:56.306Z,204.35
2022-12-19T18:38:01.458Z,206.73
2022-12-19T18:40:20.248Z,214.20
2022-12-19T18:42:26.824Z,216.10
2022-12-19T18:44:30.072Z,211.35
2022-12-19T18:46:34.332Z,215.75
2022-12-19T18:48:38.544Z,214.40
2022-12-19T18:50:41.996Z,225.50
2022-12-19T18:52:45.465Z,222.85
2022-12-19T18:54:48.785Z,202.00
2022-12-19T18:56:53.590Z,203.55
2022-12-19T18:58:56.958Z,207.25
2022-12-19T19:01:01.745Z,216.60
2022-12-19T19:03:07.456Z,234.13
2022-12-19T19:05:16.784Z,218.75
2022-12-19T19:07:20.081Z,205.98
2022-12-19T19:09:23.994Z,199.05
2022-12-19T19:11:30.183Z,215.05
2022-12-19T19:13:34.838Z,204.07
2022-12-19T19:15:43.498Z,230.18
2022-12-19T19:17:49.322Z,213.70
2022-12-19T19:19:52.643Z,207.52
2022-12-19T19:21:56.105Z,211.25
2022-12-19T19:24:04.189Z,231.77
2022-12-19T19:26:07.716Z,219.18
2022-12-19T19:28:11.173Z,232.30
2022-12-19T19:30:16.185Z,218.95
2022-12-19T19:32:20.080Z,214.82
2022-12-19T19:34:28.360Z,219.93
2022-12-19T19:36:35.874Z,233.02
2022-12-19T19:38:41.446Z,225.25
2022-12-19T19:40:44.879Z,211.38
2022-12-19T19:42:49.132Z,216.93
2022-12-19T19:44:52.631Z,215.02
2022-12-19T19:46:57.432Z,229.98
2022-12-19T19:49:01.175Z,232.35
2022-12-19T19:51:05.414Z,220.88
2022-12-19T19:53:08.933Z,243.77
2022-12-19T19:55:14.452Z,239.77
2022-12-19T19:57:17.918Z,221.73
2022-12-19T19:59:21.369Z,226.07
2022-12-19T20:01:24.814Z,243.05
2022-12-19T20:03:30.002Z,232.60
2022-12-19T20:05:33.988Z,226.38
2022-12-19T20:07:37.437Z,223.52
2022-12-19T20:09:40.779Z,225.52
2022-12-19T20:11:44.185Z,238.73
2022-12-19T20:13:47.526Z,224.70
2022-12-19T20:15:51.223Z,221.77
2022-12-19T20:17:54.573Z,212.90
2022-12-19T20:19:59.478Z,219.73
2022-12-19T20:22:02.847Z,209.80
2022-12-19T20:24:06.759Z,207.52
2022-12-19T20:26:11.257Z,221.05
2022-12-19T20:28:14.900Z,225.35
2022-12-19T20:30:18.384Z,223.98
2022-12-19T20:32:21.748Z,233.88
2022-12-19T20:34:25.418Z,234.57
2022-12-19T20:36:30.181Z,256.60
2022-12-19T20:38:33.536Z,255.75
2022-12-19T20:40:36.924Z,235.27
2022-12-19T20:42:40.261Z,243.82
2022-12-19T20:44:43.671Z,232.60
2022-12-19T20:46:47.203Z,228.70
2022-12-19T20:48:51.223Z,235.32
2022-12-19T20:50:56.651Z,227.73
2022-12-19T20:53:01.599Z,235.45
2022-12-19T20:55:05.485Z,238.80
2022-12-19T20:57:08.822Z,229.07
2022-12-19T20:59:12.343Z,216.00
2022-12-19T21:01:18.937Z,230.60
2022-12-19T21:03:28.289Z,239.95
2022-12-19T21:05:32.691Z,231.95
2022-12-19T21:07:36.099Z,242.32
2022-12-19T21:09:44.788Z,239.77
2022-12-19T21:11:48.225Z,222.30
2022-12-19T21:13:51.569Z,222.60
2022-12-19T21:15:58.367Z,241.15
2022-12-19T21:18:02.459Z,223.98
2022-12-19T21:20:07.327Z,225.50
2022-12-19T21:22:10.960Z,232.88
2022-12-19T21:24:14.337Z,170.85
2022-12-19T21:26:21.736Z,175.52
2022-12-19T21:28:25.196Z,181.65
2022-12-19T21:30:28.517Z,164.00
2022-12-19T21:32:31.920Z,159.35
2022-12-19T21:34:35.261Z,156.05
2022-12-19T21:36:39.547Z,163.27
2022-12-19T21:38:43.363Z,168.20
2022-12-19T21:40:46.770Z,167.18
2022-12-19T21:42:51.493Z,158.30
2022-12-19T21:44:54.799Z,160.02
2022-12-19T21:46:58.198Z,156.85
2022-12-19T21:49:02.830Z,160.00
2022-12-19T21:51:06.796Z,150.77
2022-12-19T21:53:10.782Z,156.98
2022-12-19T21:55:14.213Z,359.85
2022-12-19T21:57:17.721Z,154.65
2022-12-19T21:59:22.614Z,156.15
2022-12-19T22:01:27.699Z,158.93
2022-12-19T22:03:31.434Z,160.25
2022-12-19T22:05:35.131Z,157.75
2022-12-19T22:07:38.605Z,155.60
2022-12-19T22:09:42.621Z,173.32
2022-12-19T22:11:47.007Z,188.35
2022-12-19T22:13:51.419Z,193.82
2022-12-19T22:16:00.778Z,192.20
2022-12-19T22:18:04.211Z,196.82
2022-12-19T22:20:10.039Z,240.52
2022-12-19T22:22:13.328Z,238.38
2022-12-19T22:24:19.909Z,231.73
2022-12-19T22:26:24.688Z,229.45
2022-12-19T22:28:30.453Z,224.43
2022-12-19T22:30:35.191Z,225.18
2022-12-19T22:32:39.926Z,235.95
2022-12-19T22:34:43.326Z,221.45
2022-12-19T22:36:47.698Z,238.75
2022-12-19T22:38:51.440Z,234.45
2022-12-19T22:40:54.882Z,242.90
2022-12-19T22:42:58.268Z,232.50
2022-12-19T22:45:01.629Z,251.98
2022-12-19T22:47:05.186Z,242.85
2022-12-19T22:49:12.036Z,239.05
2022-12-19T22:51:16.757Z,237.73
2022-12-19T22:53:20.346Z,248.35
2022-12-19T22:55:23.782Z,234.63
2022-12-19T22:57:27.074Z,247.85
2022-12-19T22:59:30.346Z,241.70
2022-12-19T23:01:36.670Z,247.48
2022-12-19T23:03:40.338Z,234.90
2022-12-19T23:05:51.592Z,253.35
2022-12-19T23:07:55.357Z,240.40
2022-12-19T23:09:58.681Z,238.27
2022-12-19T23:12:01.949Z,229.50
2022-12-19T23:14:07.632Z,238.93
2022-12-19T23:16:13.193Z,238.98
2022-12-19T23:18:16.620Z,234.38
2022-12-19T23:20:19.961Z,243.02
2022-12-19T23:22:24.617Z,238.23
2022-12-19T23:24:27.934Z,245.05
2022-12-19T23:26:35.118Z,242.95
2022-12-19T23:28:38.554Z,255.88
2022-12-19T23:30:41.834Z,248.13
2022-12-19T23:32:50.500Z,248.45
2022-12-19T23:34:54.415Z,252.73
2022-12-19T23:37:13.166Z,263.52
2022-12-19T23:39:18.078Z,269.85
2022-12-19T23:41:21.621Z,250.80
2022-12-19T23:43:24.988Z,276.92
2022-12-19T23:45:28.424Z,259.50
2022-12-19T23:47:31.888Z,268.63
2022-12-19T23:49:35.320Z,272.55
2022-12-19T23:51:38.725Z,273.20
2022-12-19T23:53:42.207Z,259.55
2022-12-19T23:55:50.142Z,282.90
2022-12-19T23:57:53.433Z,293.48
2022-12-19T23:59:56.745Z,266.00
